createdAt,value
2017-07-19T00:02:22.741Z,68.30
2017-07-19T00:04:49.630Z,68.20
2017-07-19T00:07:16.601Z,68.30
2017-07-19T00:09:43.487Z,67.90
2017-07-19T00:12:10.419Z,68.40
2017-07-19T00:14:37.701Z,68.30
2017-07-19T00:17:04.579Z,68.20
2017-07-19T00:19:31.542Z,68.40
2017-07-19T00:21:58.488Z,68.50
2017-07-19T00:24:25.434Z,68.80
2017-07-19T00:26:52.352Z,68.70
2017-07-19T00:29:19.329Z,68.80
2017-07-19T00:31:46.273Z,69.00
2017-07-19T00:34:13.171Z,69.40
2017-07-19T00:36:40.180Z,69.20
2017-07-19T00:39:07.466Z,68.90
2017-07-19T00:41:34.345Z,68.90
2017-07-19T00:44:01.262Z,69.10
2017-07-19T00:46:28.156Z,69.40
2017-07-19T00:48:55.041Z,69.30
2017-07-19T00:51:22.050Z,69.20
2017-07-19T00:53:48.994Z,69.10
2017-07-19T00:56:15.943Z,69.50
2017-07-19T00:58:42.889Z,69.50
2017-07-19T01:01:09.834Z,70.10
2017-07-19T01:03:36.776Z,69.50
2017-07-19T01:06:03.702Z,69.60
2017-07-19T01:08:30.580Z,69.80
2017-07-19T01:10:57.857Z,70.30
2017-07-19T01:13:24.873Z,70.30
2017-07-19T01:15:52.214Z,70.40
2017-07-19T01:18:19.106Z,70.40
2017-07-19T01:20:45.998Z,70.50
2017-07-19T01:23:12.966Z,70.70
2017-07-19T01:25:39.856Z,70.70
2017-07-19T01:28:06.854Z,70.80
2017-07-19T01:30:33.783Z,70.90
2017-07-19T01:33:00.753Z,70.40
2017-07-19T01:35:27.702Z,70.60
2017-07-19T01:37:59.336Z,70.90
2017-07-19T01:40:26.303Z,70.90
2017-07-19T01:42:53.182Z,71.10
2017-07-19T01:45:20.093Z,71.40
2017-07-19T01:47:47.021Z,70.90
2017-07-19T01:50:13.911Z,71.40
2017-07-19T01:52:40.804Z,71.30
2017-07-19T01:55:07.729Z,71.60
2017-07-19T01:57:34.609Z,71.40
2017-07-19T02:00:01.574Z,71.30
2017-07-19T02:02:28.898Z,71.60
2017-07-19T02:04:55.809Z,71.60
2017-07-19T02:07:22.685Z,71.30
2017-07-19T02:09:49.609Z,71.50
2017-07-19T02:12:16.493Z,71.60
2017-07-19T02:14:43.822Z,71.40
2017-07-19T02:17:10.713Z,71.40
2017-07-19T02:19:37.623Z,71.40
2017-07-19T02:22:04.681Z,71.30
2017-07-19T02:24:31.974Z,71.50
2017-07-19T02:26:58.857Z,71.50
2017-07-19T02:29:25.826Z,71.50
2017-07-19T02:31:53.169Z,71.70
2017-07-19T02:34:20.117Z,71.70
2017-07-19T02:36:47.045Z,71.70
2017-07-19T02:39:14.014Z,71.80
2017-07-19T02:41:41.365Z,72.20
2017-07-19T02:44:08.311Z,72.20
2017-07-19T02:46:35.257Z,72.20
2017-07-19T02:49:02.253Z,72.60
2017-07-19T02:51:29.129Z,72.80
2017-07-19T02:53:56.097Z,73.00
2017-07-19T02:56:23.049Z,72.60
2017-07-19T02:58:49.937Z,72.40
2017-07-19T03:01:16.817Z,72.60
2017-07-19T03:03:43.836Z,72.40
2017-07-19T03:06:10.793Z,72.40
2017-07-19T03:08:37.686Z,72.30
2017-07-19T03:11:04.682Z,72.50
2017-07-19T03:13:31.630Z,71.90
2017-07-19T03:15:58.546Z,72.00
2017-07-19T03:18:25.517Z,72.10
2017-07-19T03:20:52.469Z,72.20
2017-07-19T03:23:19.358Z,72.40
2017-07-19T03:25:46.258Z,72.40
2017-07-19T03:28:13.212Z,72.40
2017-07-19T03:30:40.093Z,72.80
2017-07-19T03:33:07.006Z,72.70
2017-07-19T03:35:33.937Z,72.40
2017-07-19T03:38:00.839Z,72.50
2017-07-19T03:40:28.194Z,72.60
2017-07-19T03:42:55.513Z,72.50
2017-07-19T03:45:22.498Z,72.50
2017-07-19T03:47:49.848Z,72.50
2017-07-19T03:50:16.797Z,72.50
2017-07-19T03:52:44.148Z,72.70
2017-07-19T03:55:11.036Z,72.70
2017-07-19T03:57:38.046Z,73.00
2017-07-19T04:00:05.330Z,72.70
2017-07-19T04:02:32.237Z,72.70
2017-07-19T04:04:59.126Z,72.50
2017-07-19T04:07:26.069Z,72.50
2017-07-19T04:09:53.082Z,72.50
2017-07-19T04:12:20.020Z,72.70
2017-07-19T04:14:46.969Z,72.20
2017-07-19T04:17:13.917Z,72.10
2017-07-19T04:19:41.245Z,72.20
2017-07-19T04:22:08.166Z,72.20
2017-07-19T04:24:35.152Z,72.10
2017-07-19T04:27:03.318Z,71.80
2017-07-19T04:29:30.269Z,71.70
2017-07-19T04:31:57.217Z,71.90
2017-07-19T04:34:24.573Z,72.30
2017-07-19T04:36:51.516Z,72.30
2017-07-19T04:39:18.403Z,72.40
2017-07-19T04:41:45.321Z,73.00
2017-07-19T04:44:12.706Z,73.60
2017-07-19T04:46:39.591Z,73.60
2017-07-19T04:49:06.565Z,73.50
2017-07-19T04:51:33.843Z,73.40
2017-07-19T04:54:00.861Z,73.30
2017-07-19T04:56:27.797Z,72.90
2017-07-19T04:58:54.696Z,72.40
2017-07-19T05:01:21.606Z,72.40
2017-07-19T05:03:48.953Z,72.20
2017-07-19T05:06:16.309Z,72.10
2017-07-19T05:08:43.594Z,72.10
2017-07-19T05:11:10.566Z,72.10
2017-07-19T05:13:37.554Z,71.90
2017-07-19T05:16:04.503Z,71.60
2017-07-19T05:18:31.445Z,71.70
2017-07-19T05:20:58.344Z,71.90
2017-07-19T05:23:25.273Z,71.10
2017-07-19T05:25:52.187Z,71.20
2017-07-19T05:28:19.649Z,71.20
2017-07-19T05:30:46.973Z,71.00
2017-07-19T05:33:13.965Z,71.00
2017-07-19T05:35:41.253Z,71.00
2017-07-19T05:38:08.182Z,71.00
2017-07-19T05:40:35.076Z,71.00
2017-07-19T05:43:02.041Z,70.80
2017-07-19T05:45:29.438Z,70.40
2017-07-19T05:47:56.339Z,70.40
2017-07-19T05:50:23.701Z,70.10
2017-07-19T05:52:51.029Z,69.90
2017-07-19T05:55:17.999Z,69.90
2017-07-19T05:57:44.945Z,69.40
2017-07-19T06:00:11.886Z,69.50
2017-07-19T06:02:38.845Z,69.40
2017-07-19T06:05:06.193Z,68.70
2017-07-19T06:07:33.137Z,68.70
2017-07-19T06:10:00.026Z,68.70
2017-07-19T06:12:26.905Z,68.60
2017-07-19T06:14:53.824Z,68.60
2017-07-19T06:17:20.701Z,68.00
2017-07-19T06:19:47.666Z,68.20
2017-07-19T06:22:14.597Z,68.00
2017-07-19T06:24:41.554Z,67.50
2017-07-19T06:27:08.433Z,67.30
2017-07-19T06:29:35.376Z,67.20
2017-07-19T06:32:02.297Z,67.00
2017-07-19T06:34:29.649Z,67.40
2017-07-19T06:36:56.603Z,67.40
2017-07-19T06:39:23.953Z,67.20
2017-07-19T06:41:50.902Z,67.20
2017-07-19T06:44:17.995Z,67.20
2017-07-19T06:46:44.878Z,67.30
2017-07-19T06:49:11.757Z,66.90
2017-07-19T06:51:39.061Z,66.20
2017-07-19T06:54:06.042Z,66.20
2017-07-19T06:56:32.963Z,66.10
2017-07-19T06:58:59.846Z,66.30
2017-07-19T07:01:26.778Z,66.40
2017-07-19T07:03:53.738Z,66.80
2017-07-19T07:06:21.081Z,66.20
2017-07-19T07:08:47.992Z,66.20
2017-07-19T07:11:14.968Z,66.10
2017-07-19T07:13:41.929Z,66.20
2017-07-19T07:16:09.202Z,66.20
2017-07-19T07:18:36.121Z,66.20
2017-07-19T07:21:03.042Z,65.90
2017-07-19T07:23:29.924Z,65.90
2017-07-19T07:25:57.266Z,65.50
2017-07-19T07:28:24.214Z,65.60
2017-07-19T07:30:51.576Z,64.90
2017-07-19T07:33:18.853Z,64.70
2017-07-19T07:35:45.878Z,64.70
2017-07-19T07:38:12.784Z,64.40
2017-07-19T07:40:39.669Z,64.50
2017-07-19T07:43:06.613Z,64.60
2017-07-19T07:45:33.502Z,64.30
2017-07-19T07:48:00.380Z,64.50
2017-07-19T07:50:27.349Z,64.60
2017-07-19T07:52:54.233Z,63.90
2017-07-19T07:55:21.113Z,63.70
2017-07-19T07:57:48.089Z,64.00
2017-07-19T08:00:15.029Z,64.10
2017-07-19T08:02:41.936Z,63.80
2017-07-19T08:05:08.863Z,63.10
2017-07-19T08:07:35.769Z,63.00
2017-07-19T08:10:02.751Z,63.20
2017-07-19T08:12:29.665Z,63.20
2017-07-19T08:14:56.609Z,62.50
2017-07-19T08:17:23.516Z,62.00
2017-07-19T08:19:50.450Z,62.00
2017-07-19T08:22:17.341Z,62.20
2017-07-19T08:24:44.301Z,62.10
2017-07-19T08:27:11.608Z,61.80
2017-07-19T08:29:38.486Z,61.80
2017-07-19T08:32:05.442Z,61.70
2017-07-19T08:34:32.327Z,61.50
2017-07-19T08:36:59.212Z,60.90
2017-07-19T08:39:26.179Z,61.20
2017-07-19T08:41:53.122Z,61.20
2017-07-19T08:44:20.065Z,60.90
2017-07-19T08:46:47.013Z,60.30
2017-07-19T08:49:13.966Z,59.60
2017-07-19T08:51:41.313Z,59.40
2017-07-19T08:54:08.230Z,59.40
2017-07-19T08:56:35.112Z,60.10
2017-07-19T08:59:02.162Z,59.90
2017-07-19T09:01:29.519Z,58.80
2017-07-19T09:03:56.464Z,58.80
2017-07-19T09:06:23.378Z,59.50
2017-07-19T09:08:50.261Z,59.60
2017-07-19T09:11:17.607Z,58.80
2017-07-19T09:13:44.485Z,58.80
2017-07-19T09:16:11.393Z,59.10
2017-07-19T09:18:38.345Z,59.40
2017-07-19T09:21:05.301Z,59.10
2017-07-19T09:23:32.746Z,59.10
2017-07-19T09:25:59.743Z,59.10
2017-07-19T09:28:26.741Z,58.40
2017-07-19T09:30:53.693Z,58.80
2017-07-19T09:33:21.057Z,58.30
2017-07-19T09:35:48.041Z,58.30
2017-07-19T09:38:15.389Z,58.40
2017-07-19T09:40:42.338Z,58.40
2017-07-19T09:43:09.222Z,59.10
2017-07-19T09:45:36.174Z,58.40
2017-07-19T09:48:03.079Z,58.20
2017-07-19T09:50:30.021Z,57.90
2017-07-19T09:52:57.375Z,57.90
2017-07-19T09:55:24.662Z,57.90
2017-07-19T09:57:51.589Z,57.90
2017-07-19T10:00:18.933Z,57.80
2017-07-19T10:02:46.215Z,57.80
2017-07-19T10:05:13.226Z,57.80
2017-07-19T10:07:40.121Z,57.90
2017-07-19T10:10:07.054Z,57.50
2017-07-19T10:12:33.938Z,57.40
2017-07-19T10:15:00.827Z,57.50
2017-07-19T10:17:28.165Z,57.00
2017-07-19T10:19:55.109Z,57.00
2017-07-19T10:22:22.061Z,56.00
2017-07-19T10:24:49.001Z,55.60
2017-07-19T10:27:15.996Z,56.00
2017-07-19T10:29:43.001Z,55.70
2017-07-19T10:32:10.296Z,55.40
2017-07-19T10:34:37.297Z,55.30
2017-07-19T10:37:04.243Z,55.20
2017-07-19T10:39:31.189Z,54.90
2017-07-19T10:41:58.101Z,55.20
2017-07-19T10:44:24.981Z,54.80
2017-07-19T10:46:51.938Z,54.30
2017-07-19T10:49:19.286Z,54.50
2017-07-19T10:51:46.166Z,54.50
2017-07-19T10:54:13.083Z,54.50
2017-07-19T10:56:39.993Z,54.60
2017-07-19T10:59:06.881Z,54.40
2017-07-19T11:01:34.225Z,54.40
2017-07-19T11:04:01.174Z,54.40
2017-07-19T11:06:28.458Z,54.50
2017-07-19T11:08:55.477Z,54.50
2017-07-19T11:11:22.425Z,54.40
2017-07-19T11:13:49.706Z,54.70
2017-07-19T11:16:16.721Z,54.70
2017-07-19T11:18:43.615Z,54.80
2017-07-19T11:21:10.510Z,54.20
2017-07-19T11:23:37.466Z,54.20
2017-07-19T11:26:04.814Z,53.80
2017-07-19T11:28:31.761Z,53.80
2017-07-19T11:30:58.704Z,53.70
2017-07-19T11:33:25.656Z,53.40
2017-07-19T11:35:52.537Z,53.40
2017-07-19T11:38:19.454Z,53.20
2017-07-19T11:40:46.805Z,53.10
2017-07-19T11:43:14.160Z,53.30
2017-07-19T11:45:41.037Z,53.30
2017-07-19T11:48:07.994Z,53.30
2017-07-19T11:50:34.941Z,52.70
2017-07-19T11:53:02.310Z,53.10
2017-07-19T11:55:29.650Z,52.60
2017-07-19T11:57:56.598Z,52.60
2017-07-19T12:00:23.563Z,52.50
2017-07-19T12:02:50.485Z,52.70
2017-07-19T12:05:17.482Z,52.70
2017-07-19T12:07:44.382Z,52.40
2017-07-19T12:10:11.326Z,52.70
2017-07-19T12:12:38.214Z,52.70
2017-07-19T12:15:05.136Z,52.50
2017-07-19T12:17:32.583Z,52.40
2017-07-19T12:19:59.530Z,52.30
2017-07-19T12:22:26.804Z,52.30
2017-07-19T12:24:53.761Z,52.20
2017-07-19T12:27:20.722Z,52.20
2017-07-19T12:29:47.626Z,51.70
2017-07-19T12:32:14.959Z,51.40
2017-07-19T12:34:41.853Z,51.40
2017-07-19T12:37:08.746Z,51.70
2017-07-19T12:39:35.725Z,51.60
2017-07-19T12:42:03.065Z,51.20
2017-07-19T12:44:30.015Z,51.20
2017-07-19T12:46:56.933Z,51.20
2017-07-19T12:49:23.905Z,50.90
2017-07-19T12:51:50.822Z,50.70
2017-07-19T12:54:17.705Z,50.70
2017-07-19T12:56:45.061Z,50.30
2017-07-19T12:59:12.405Z,50.10
2017-07-19T13:01:39.357Z,50.10
2017-07-19T13:04:06.714Z,50.30
2017-07-19T13:06:33.655Z,50.30
2017-07-19T13:09:00.628Z,50.40
2017-07-19T13:11:27.978Z,50.70
2017-07-19T13:13:55.326Z,50.30
2017-07-19T13:16:22.669Z,50.50
2017-07-19T13:18:49.617Z,50.50
2017-07-19T13:21:16.582Z,49.90
2017-07-19T13:23:43.858Z,49.60
2017-07-19T13:26:10.773Z,49.60
2017-07-19T13:28:38.053Z,49.70
2017-07-19T13:31:05.065Z,49.70
2017-07-19T13:33:32.013Z,50.50
2017-07-19T13:35:58.921Z,50.40
2017-07-19T13:38:26.317Z,49.70
2017-07-19T13:40:53.222Z,49.70
2017-07-19T13:43:20.166Z,50.10
2017-07-19T13:45:47.118Z,50.00
2017-07-19T13:48:13.998Z,50.10
2017-07-19T13:50:40.901Z,50.00
2017-07-19T13:53:07.846Z,50.60
2017-07-19T13:55:34.794Z,49.80
2017-07-19T13:58:01.751Z,49.50
2017-07-19T14:00:28.790Z,49.50
2017-07-19T14:02:55.670Z,49.80
2017-07-19T14:05:22.681Z,49.60
2017-07-19T14:07:50.332Z,49.10
2017-07-19T14:10:17.218Z,49.70
2017-07-19T14:12:44.242Z,49.20
2017-07-19T14:15:11.191Z,49.60
2017-07-19T14:17:38.065Z,49.10
2017-07-19T14:20:05.077Z,49.30
2017-07-19T14:22:32.672Z,48.90
2017-07-19T14:24:59.569Z,49.30
2017-07-19T14:27:26.534Z,49.40
2017-07-19T14:29:53.477Z,49.90
2017-07-19T14:32:20.452Z,49.50
2017-07-19T14:34:47.369Z,49.90
2017-07-19T14:37:14.321Z,49.30
2017-07-19T14:39:41.378Z,48.90
2017-07-19T14:42:08.721Z,48.70
2017-07-19T14:44:35.669Z,48.70
2017-07-19T14:47:02.626Z,48.90
2017-07-19T14:49:29.974Z,48.50
2017-07-19T14:51:56.926Z,48.40
2017-07-19T14:54:24.272Z,48.70
2017-07-19T14:56:51.217Z,48.70
2017-07-19T14:59:18.168Z,48.20
2017-07-19T15:01:45.114Z,47.60
2017-07-19T15:04:12.034Z,48.20
2017-07-19T15:06:39.006Z,49.40
2017-07-19T15:09:05.962Z,49.20
2017-07-19T15:11:33.305Z,50.30
2017-07-19T15:14:00.258Z,50.30
2017-07-19T15:16:27.609Z,50.50
2017-07-19T15:18:54.585Z,50.50
2017-07-19T15:21:21.914Z,51.10
2017-07-19T15:23:48.860Z,51.20
2017-07-19T15:26:15.769Z,51.50
2017-07-19T15:28:42.757Z,51.30
2017-07-19T15:31:10.109Z,51.80
2017-07-19T15:33:37.058Z,51.80
2017-07-19T15:36:04.008Z,51.80
2017-07-19T15:38:31.345Z,51.40
2017-07-19T15:40:58.294Z,51.40
2017-07-19T15:43:25.241Z,50.50
2017-07-19T15:45:52.158Z,50.90
2017-07-19T15:48:19.129Z,51.50
2017-07-19T15:50:46.065Z,51.60
2017-07-19T15:53:13.021Z,52.20
2017-07-19T15:55:39.978Z,51.80
2017-07-19T15:58:07.430Z,51.80
2017-07-19T16:00:34.319Z,51.80
2017-07-19T16:03:01.218Z,51.60
2017-07-19T16:05:28.164Z,52.40
2017-07-19T16:07:55.118Z,53.40
2017-07-19T16:10:22.465Z,53.90
2017-07-19T16:12:49.349Z,53.90
2017-07-19T16:15:16.261Z,54.70
2017-07-19T16:17:43.225Z,56.20
2017-07-19T16:20:10.546Z,60.70
2017-07-19T16:22:37.514Z,60.70
2017-07-19T16:25:04.862Z,61.90
2017-07-19T16:27:31.769Z,62.00
2017-07-19T16:29:58.761Z,62.30
2017-07-19T16:32:25.734Z,62.40
2017-07-19T16:34:52.651Z,62.50
2017-07-19T16:37:19.982Z,62.90
2017-07-19T16:39:46.913Z,62.90
2017-07-19T16:42:13.799Z,61.80
2017-07-19T16:44:40.698Z,62.60
2017-07-19T16:47:07.735Z,62.50
2017-07-19T16:49:34.643Z,63.20
2017-07-19T16:52:01.989Z,62.80
2017-07-19T16:54:28.947Z,62.80
2017-07-19T16:56:56.238Z,66.50
2017-07-19T16:59:23.266Z,66.50
2017-07-19T17:01:50.150Z,66.10
2017-07-19T17:04:17.034Z,66.70
2017-07-19T17:06:43.997Z,65.50
2017-07-19T17:09:11.281Z,65.00
2017-07-19T17:11:38.182Z,65.00
2017-07-19T17:14:05.121Z,64.60
2017-07-19T17:16:32.023Z,64.80
2017-07-19T17:18:58.936Z,64.70
2017-07-19T17:21:26.286Z,64.40
2017-07-19T17:23:53.645Z,63.70
2017-07-19T17:26:20.981Z,63.40
2017-07-19T17:28:47.896Z,63.40
2017-07-19T17:31:14.817Z,62.10
2017-07-19T17:33:41.925Z,61.70
2017-07-19T17:36:08.823Z,61.60
2017-07-19T17:38:35.724Z,61.30
2017-07-19T17:41:03.077Z,61.00
2017-07-19T17:43:30.426Z,61.50
2017-07-19T17:45:57.361Z,61.50
2017-07-19T17:48:24.329Z,62.10
2017-07-19T17:50:51.680Z,62.50
2017-07-19T17:53:19.021Z,62.20
2017-07-19T17:55:45.981Z,62.20
2017-07-19T17:58:12.902Z,61.80
2017-07-19T18:00:39.915Z,60.80
2017-07-19T18:03:06.817Z,60.20
2017-07-19T18:05:33.774Z,59.30
2017-07-19T18:08:01.117Z,59.00
2017-07-19T18:10:28.012Z,58.90
2017-07-19T18:12:54.898Z,58.70
2017-07-19T18:15:21.902Z,59.40
2017-07-19T18:17:48.902Z,59.40
2017-07-19T18:20:15.851Z,58.80
2017-07-19T18:22:42.802Z,58.60
2017-07-19T18:25:10.154Z,59.00
2017-07-19T18:27:37.101Z,59.00
2017-07-19T18:30:04.057Z,59.40
2017-07-19T18:32:31.425Z,60.10
2017-07-19T18:34:58.870Z,59.70
2017-07-19T18:37:26.221Z,59.40
2017-07-19T18:39:53.141Z,59.40
2017-07-19T18:42:20.117Z,59.20
2017-07-19T18:44:47.061Z,59.50
2017-07-19T18:47:14.009Z,59.70
2017-07-19T18:49:41.361Z,60.10
2017-07-19T18:52:08.306Z,60.10
2017-07-19T18:54:35.255Z,60.30
2017-07-19T18:57:02.247Z,61.00
2017-07-19T18:59:29.149Z,61.40
2017-07-19T19:01:56.097Z,61.60
2017-07-19T19:04:23.006Z,61.50
2017-07-19T19:06:49.998Z,61.50
2017-07-19T19:09:17.341Z,60.60
2017-07-19T19:11:44.264Z,60.60
2017-07-19T19:14:11.239Z,61.80
2017-07-19T19:16:38.586Z,61.50
2017-07-19T19:19:05.477Z,61.50
2017-07-19T19:21:32.381Z,62.10
2017-07-19T19:23:59.326Z,62.80
2017-07-19T19:26:26.270Z,63.30
2017-07-19T19:28:53.155Z,63.50
2017-07-19T19:31:20.161Z,63.80
2017-07-19T19:33:47.117Z,64.10
2017-07-19T19:36:14.494Z,64.80
2017-07-19T19:38:41.829Z,65.00
2017-07-19T19:41:09.182Z,65.40
2017-07-19T19:43:36.270Z,65.40
2017-07-19T19:46:03.150Z,65.90
2017-07-19T19:48:30.118Z,65.90
2017-07-19T19:50:57.066Z,66.20
2017-07-19T19:53:24.009Z,66.30
2017-07-19T19:55:50.969Z,66.50
2017-07-19T19:58:18.317Z,67.00
2017-07-19T20:00:45.506Z,67.00
2017-07-19T20:03:12.420Z,67.20
2017-07-19T20:05:39.356Z,67.40
2017-07-19T20:08:06.237Z,67.70
2017-07-19T20:10:33.150Z,67.70
2017-07-19T20:13:00.509Z,68.00
2017-07-19T20:15:27.394Z,68.00
2017-07-19T20:17:54.407Z,68.10
2017-07-19T20:20:21.706Z,68.50
2017-07-19T20:22:48.596Z,68.50
2017-07-19T20:25:15.553Z,68.70
2017-07-19T20:27:42.900Z,68.50
2017-07-19T20:30:09.790Z,68.50
2017-07-19T20:32:36.793Z,68.50
2017-07-19T20:35:03.745Z,68.60
2017-07-19T20:37:30.694Z,69.00
2017-07-19T20:39:58.049Z,69.30
2017-07-19T20:42:25.401Z,69.20
2017-07-19T20:44:52.363Z,69.20
2017-07-19T20:47:19.702Z,69.40
2017-07-19T20:49:46.650Z,69.40
2017-07-19T20:52:13.599Z,69.50
2017-07-19T20:54:40.885Z,69.70
2017-07-19T20:57:07.791Z,69.70
2017-07-19T20:59:34.750Z,70.00
2017-07-19T21:02:02.108Z,70.20
2017-07-19T21:04:29.431Z,70.30
2017-07-19T21:06:56.402Z,70.30
2017-07-19T21:09:23.519Z,70.50
2017-07-19T21:11:50.506Z,70.30
2017-07-19T21:14:17.817Z,70.30
2017-07-19T21:16:44.807Z,70.30
2017-07-19T21:19:11.754Z,70.20
2017-07-19T21:21:39.057Z,70.10
2017-07-19T21:24:05.985Z,70.10
2017-07-19T21:26:32.896Z,70.10
2017-07-19T21:28:59.846Z,70.20
2017-07-19T21:31:27.215Z,70.20
2017-07-19T21:33:54.558Z,70.40
2017-07-19T21:36:21.517Z,70.40
2017-07-19T21:38:48.865Z,71.10
2017-07-19T21:41:16.217Z,71.60
2017-07-19T21:43:43.604Z,72.10
2017-07-19T21:46:10.513Z,72.10
2017-07-19T21:48:37.466Z,72.80
2017-07-19T21:51:04.849Z,71.70
2017-07-19T21:53:31.757Z,71.70
2017-07-19T21:55:58.705Z,71.90
2017-07-19T21:58:25.631Z,71.90
2017-07-19T22:00:52.597Z,72.30
2017-07-19T22:03:19.483Z,73.00
2017-07-19T22:05:46.401Z,73.30
2017-07-19T22:08:13.744Z,73.70
2017-07-19T22:10:40.693Z,73.70
2017-07-19T22:13:07.610Z,73.40
2017-07-19T22:15:34.581Z,73.20
2017-07-19T22:18:01.529Z,72.70
2017-07-19T22:20:28.573Z,72.80
2017-07-19T22:22:55.520Z,72.70
2017-07-19T22:25:23.290Z,72.60
2017-07-19T22:27:50.237Z,72.60
2017-07-19T22:30:17.162Z,72.70
2017-07-19T22:32:44.045Z,72.60
2017-07-19T22:35:11.389Z,72.70
2017-07-19T22:37:38.332Z,72.70
2017-07-19T22:40:05.283Z,72.70
2017-07-19T22:42:32.635Z,72.90
2017-07-19T22:44:59.581Z,72.90
2017-07-19T22:47:26.529Z,72.90
2017-07-19T22:49:53.472Z,72.80
2017-07-19T22:52:20.521Z,72.70
2017-07-19T22:54:47.474Z,72.60
2017-07-19T22:57:14.753Z,72.50
2017-07-19T22:59:41.701Z,72.50
2017-07-19T23:02:08.614Z,72.50
2017-07-19T23:04:35.561Z,72.50
2017-07-19T23:07:02.505Z,72.50
2017-07-19T23:09:29.453Z,72.20
2017-07-19T23:11:56.346Z,72.30
2017-07-19T23:14:23.267Z,72.00
2017-07-19T23:16:50.545Z,71.80
2017-07-19T23:19:17.465Z,71.80
2017-07-19T23:21:44.782Z,71.50
2017-07-19T23:24:11.749Z,71.50
2017-07-19T23:26:38.629Z,70.80
2017-07-19T23:29:05.642Z,71.00
2017-07-19T23:31:32.590Z,71.20
2017-07-19T23:33:59.534Z,71.80
2017-07-19T23:36:26.445Z,71.90
2017-07-19T23:38:53.330Z,72.00
2017-07-19T23:41:20.688Z,71.80
2017-07-19T23:43:47.957Z,71.20
2017-07-19T23:46:15.303Z,70.80
2017-07-19T23:48:42.613Z,71.40
2017-07-19T23:51:09.502Z,71.40
2017-07-19T23:53:36.811Z,72.10
2017-07-19T23:56:03.800Z,72.10
2017-07-19T23:58:31.147Z,72.40
